createdAt,value
2023-06-15T00:01:24.626Z,15.53
2023-06-15T00:04:07.877Z,15.54
2023-06-15T00:06:51.132Z,15.57
2023-06-15T00:09:35.801Z,15.59
2023-06-15T00:12:18.909Z,15.63
2023-06-15T00:15:02.430Z,15.60
2023-06-15T00:17:45.724Z,15.64
2023-06-15T00:20:29.970Z,15.61
2023-06-15T00:23:13.881Z,15.63
2023-06-15T00:25:58.816Z,15.64
2023-06-15T00:28:41.883Z,15.68
2023-06-15T00:31:24.987Z,15.67
2023-06-15T00:34:08.059Z,15.64
2023-06-15T00:36:51.402Z,15.65
2023-06-15T00:39:34.442Z,15.70
2023-06-15T00:42:18.973Z,15.69
2023-06-15T00:45:02.538Z,15.71
2023-06-15T00:47:47.392Z,15.69
2023-06-15T00:50:32.020Z,15.67
2023-06-15T00:53:16.106Z,15.72
2023-06-15T00:55:59.381Z,15.74
2023-06-15T00:58:43.918Z,15.74
2023-06-15T01:01:27.912Z,15.71
2023-06-15T01:04:11.110Z,15.73
2023-06-15T01:06:58.228Z,15.76
2023-06-15T01:09:44.120Z,15.73
2023-06-15T01:12:30.004Z,15.74
2023-06-15T01:15:15.581Z,15.70
2023-06-15T01:18:04.272Z,15.73
2023-06-15T01:20:49.720Z,15.74
2023-06-15T01:23:39.273Z,15.74
2023-06-15T01:26:25.429Z,15.76
2023-06-15T01:29:09.082Z,15.74
2023-06-15T01:31:53.663Z,15.74
2023-06-15T01:34:38.669Z,15.71
2023-06-15T01:37:21.731Z,15.79
2023-06-15T01:40:05.860Z,15.77
2023-06-15T01:42:52.072Z,15.77
2023-06-15T01:45:36.492Z,15.73
2023-06-15T01:48:20.956Z,15.79
2023-06-15T01:51:04.639Z,15.78
2023-06-15T01:53:47.761Z,15.78
2023-06-15T01:56:31.139Z,15.87
2023-06-15T01:59:15.628Z,15.87
2023-06-15T02:01:58.810Z,15.83
2023-06-15T02:04:42.026Z,15.85
2023-06-15T02:07:25.193Z,15.85
2023-06-15T02:10:09.073Z,15.86
2023-06-15T02:12:52.180Z,15.86
2023-06-15T02:15:37.870Z,15.84
2023-06-15T02:18:22.130Z,15.88
2023-06-15T02:21:05.314Z,16.00
2023-06-15T02:23:49.881Z,15.93
2023-06-15T02:26:32.999Z,16.01
2023-06-15T02:29:16.249Z,15.94
2023-06-15T02:32:00.867Z,15.91
2023-06-15T02:34:44.501Z,15.75
2023-06-15T02:37:27.549Z,15.76
2023-06-15T02:40:11.979Z,15.80
2023-06-15T02:42:55.023Z,15.74
2023-06-15T02:45:38.959Z,15.69
2023-06-15T02:48:23.402Z,15.71
2023-06-15T02:51:06.571Z,15.75
2023-06-15T02:53:49.728Z,15.94
2023-06-15T02:56:35.763Z,15.83
2023-06-15T02:59:18.822Z,15.81
2023-06-15T03:02:02.000Z,15.76
2023-06-15T03:04:47.694Z,15.83
2023-06-15T03:07:31.476Z,15.84
2023-06-15T03:10:14.624Z,15.80
2023-06-15T03:12:57.668Z,15.81
2023-06-15T03:15:40.715Z,15.90
2023-06-15T03:18:23.993Z,15.91
2023-06-15T03:21:08.960Z,15.95
2023-06-15T03:23:52.432Z,16.01
2023-06-15T03:26:35.871Z,16.07
2023-06-15T03:29:20.628Z,16.07
2023-06-15T03:32:04.197Z,16.04
2023-06-15T03:34:47.721Z,16.15
2023-06-15T03:37:32.531Z,16.18
2023-06-15T03:40:15.955Z,16.22
2023-06-15T03:42:59.030Z,16.26
2023-06-15T03:45:42.080Z,16.26
2023-06-15T03:48:25.202Z,16.26
2023-06-15T03:51:08.431Z,16.26
2023-06-15T03:53:52.860Z,16.29
2023-06-15T03:56:35.966Z,16.34
2023-06-15T03:59:19.107Z,16.31
2023-06-15T04:02:02.541Z,16.26
2023-06-15T04:04:46.114Z,16.38
2023-06-15T04:07:29.370Z,16.48
2023-06-15T04:10:13.921Z,16.47
2023-06-15T04:12:57.135Z,16.46
2023-06-15T04:15:40.352Z,16.54
2023-06-15T04:18:23.985Z,16.68
2023-06-15T04:21:09.825Z,16.82
2023-06-15T04:23:52.948Z,16.95
2023-06-15T04:26:38.197Z,17.01
2023-06-15T04:29:23.975Z,17.00
2023-06-15T04:32:11.041Z,17.08
2023-06-15T04:34:55.447Z,17.13
2023-06-15T04:37:40.490Z,17.29
2023-06-15T04:40:23.579Z,17.48
2023-06-15T04:43:08.107Z,17.51
2023-06-15T04:45:51.170Z,17.61
2023-06-15T04:48:34.392Z,17.69
2023-06-15T04:51:17.954Z,17.72
2023-06-15T04:54:01.212Z,17.94
2023-06-15T04:56:44.290Z,18.09
2023-06-15T04:59:29.316Z,18.17
2023-06-15T05:02:12.427Z,18.20
2023-06-15T05:04:55.500Z,18.16
2023-06-15T05:07:38.636Z,18.24
2023-06-15T05:10:27.954Z,18.19
2023-06-15T05:13:24.207Z,18.11
2023-06-15T05:16:08.714Z,18.19
2023-06-15T05:18:54.162Z,18.25
2023-06-15T05:21:37.543Z,18.29
2023-06-15T05:24:20.866Z,18.15
2023-06-15T05:27:04.476Z,17.89
2023-06-15T05:29:47.557Z,17.93
2023-06-15T05:32:36.259Z,17.96
2023-06-15T05:35:19.494Z,18.03
2023-06-15T05:38:02.789Z,18.00
2023-06-15T05:40:46.043Z,17.96
2023-06-15T05:43:30.122Z,18.03
2023-06-15T05:46:13.236Z,18.11
2023-06-15T05:48:57.792Z,18.15
2023-06-15T05:51:40.825Z,18.19
2023-06-15T05:54:25.128Z,18.19
2023-06-15T05:57:08.331Z,18.08
2023-06-15T05:59:51.495Z,18.11
2023-06-15T06:02:34.614Z,18.16
2023-06-15T06:05:19.445Z,18.18
2023-06-15T06:08:03.385Z,18.34
2023-06-15T06:10:46.856Z,18.52
2023-06-15T06:13:29.994Z,18.52
2023-06-15T06:16:13.029Z,18.72
2023-06-15T06:18:56.623Z,18.90
2023-06-15T06:21:41.110Z,19.17
2023-06-15T06:24:24.613Z,19.38
2023-06-15T06:27:08.131Z,19.51
2023-06-15T06:29:51.291Z,19.79
2023-06-15T06:32:34.576Z,19.88
2023-06-15T06:35:18.032Z,19.96
2023-06-15T06:38:02.629Z,20.09
2023-06-15T06:40:45.712Z,20.13
2023-06-15T06:43:28.775Z,20.09
2023-06-15T06:46:11.865Z,20.23
2023-06-15T06:48:55.513Z,20.27
2023-06-15T06:51:38.900Z,20.36
2023-06-15T06:54:23.415Z,20.37
2023-06-15T06:57:07.001Z,20.51
2023-06-15T06:59:51.743Z,20.74
2023-06-15T07:02:34.968Z,20.68
2023-06-15T07:05:18.368Z,20.91
2023-06-15T07:08:01.752Z,20.64
2023-06-15T07:10:46.280Z,20.48
2023-06-15T07:13:29.483Z,20.27
2023-06-15T07:16:12.528Z,20.32
2023-06-15T07:18:56.896Z,20.43
2023-06-15T07:21:40.470Z,20.43
2023-06-15T07:24:23.566Z,20.41
2023-06-15T07:27:08.340Z,20.55
2023-06-15T07:29:51.665Z,20.47
2023-06-15T07:32:34.737Z,20.35
2023-06-15T07:35:19.937Z,20.46
2023-06-15T07:38:05.166Z,20.36
2023-06-15T07:40:49.866Z,20.37
2023-06-15T07:43:34.282Z,20.19
2023-06-15T07:46:17.373Z,20.03
2023-06-15T07:49:00.568Z,20.03
2023-06-15T07:51:55.944Z,19.83
2023-06-15T07:54:47.180Z,19.76
2023-06-15T07:57:30.249Z,19.58
2023-06-15T08:00:16.181Z,19.64
2023-06-15T08:02:59.743Z,19.63
2023-06-15T08:05:43.442Z,19.78
2023-06-15T08:08:26.608Z,19.82
2023-06-15T08:11:10.757Z,19.80
2023-06-15T08:13:53.912Z,19.83
2023-06-15T08:16:38.502Z,19.80
2023-06-15T08:19:21.786Z,19.88
2023-06-15T08:22:05.040Z,19.98
2023-06-15T08:24:48.152Z,19.98
2023-06-15T08:27:31.285Z,20.08
2023-06-15T08:30:15.339Z,20.14
2023-06-15T08:33:00.051Z,20.03
2023-06-15T08:35:43.248Z,20.20
2023-06-15T08:38:26.553Z,20.35
2023-06-15T08:41:09.675Z,20.52
2023-06-15T08:43:55.080Z,20.87
2023-06-15T08:46:38.790Z,21.01
2023-06-15T08:49:23.350Z,21.27
2023-06-15T08:52:07.498Z,21.37
2023-06-15T08:54:54.274Z,21.53
2023-06-15T08:57:40.637Z,21.59
2023-06-15T09:00:23.928Z,21.84
2023-06-15T09:03:10.621Z,21.86
2023-06-15T09:05:56.575Z,22.14
2023-06-15T09:08:39.905Z,22.35
2023-06-15T09:11:24.867Z,22.59
2023-06-15T09:14:10.781Z,22.61
2023-06-15T09:16:53.976Z,22.66
2023-06-15T09:19:38.900Z,22.67
2023-06-15T09:22:23.527Z,22.51
2023-06-15T09:25:13.777Z,22.70
2023-06-15T09:27:58.164Z,22.59
2023-06-15T09:30:43.000Z,22.45
2023-06-15T09:33:26.770Z,22.17
2023-06-15T09:36:09.874Z,21.94
2023-06-15T09:38:56.418Z,21.76
2023-06-15T09:41:53.082Z,21.58
2023-06-15T09:44:41.705Z,21.41
2023-06-15T09:47:30.335Z,21.38
2023-06-15T09:50:13.794Z,21.25
2023-06-15T09:52:57.764Z,21.17
2023-06-15T09:55:44.508Z,21.12
2023-06-15T09:58:27.900Z,21.00
2023-06-15T10:01:13.052Z,20.92
2023-06-15T10:03:59.262Z,20.88
2023-06-15T10:06:45.115Z,20.96
2023-06-15T10:09:30.113Z,21.08
2023-06-15T10:12:17.816Z,21.15
2023-06-15T10:15:05.133Z,21.02
2023-06-15T10:17:50.114Z,20.97
2023-06-15T10:20:34.795Z,20.95
2023-06-15T10:23:29.422Z,20.87
2023-06-15T10:26:20.238Z,20.82
2023-06-15T10:29:12.609Z,20.73
2023-06-15T10:32:04.683Z,20.54
2023-06-15T10:34:53.944Z,20.22
2023-06-15T10:37:43.156Z,20.18
2023-06-15T10:40:30.772Z,20.19
2023-06-15T10:43:19.039Z,20.09
2023-06-15T10:46:03.789Z,20.05
2023-06-15T10:48:46.917Z,19.76
2023-06-15T10:51:30.995Z,19.48
2023-06-15T10:54:24.484Z,19.33
2023-06-15T10:57:09.369Z,19.25
2023-06-15T10:59:55.980Z,19.28
2023-06-15T11:03:00.196Z,19.35
2023-06-15T11:05:44.590Z,19.40
2023-06-15T11:08:29.370Z,19.40
2023-06-15T11:11:13.601Z,19.52
2023-06-15T11:13:58.211Z,19.63
2023-06-15T11:16:41.355Z,19.80
2023-06-15T11:19:27.295Z,20.03
2023-06-15T11:22:12.860Z,20.31
2023-06-15T11:24:56.787Z,20.43
2023-06-15T11:27:39.942Z,20.68
2023-06-15T11:30:22.976Z,20.94
2023-06-15T11:33:06.122Z,20.99
2023-06-15T11:38:33.624Z,21.08
2023-06-15T11:41:16.848Z,21.06
2023-06-15T11:43:59.911Z,21.38
2023-06-15T11:46:43.083Z,21.23
2023-06-15T11:49:26.508Z,21.41
2023-06-15T11:52:11.192Z,21.76
2023-06-15T11:55:08.497Z,22.00
2023-06-15T11:57:51.697Z,21.84
2023-06-15T12:00:34.833Z,21.71
2023-06-15T12:03:19.750Z,21.66
2023-06-15T12:06:02.891Z,21.85
2023-06-15T12:08:48.689Z,21.89
2023-06-15T12:11:31.981Z,22.07
2023-06-15T12:14:21.763Z,22.22
2023-06-15T12:17:05.127Z,22.56
2023-06-15T12:19:48.245Z,22.57
2023-06-15T12:22:37.137Z,22.50
2023-06-15T12:25:42.058Z,22.52
2023-06-15T12:28:26.655Z,22.56
2023-06-15T12:31:13.207Z,22.54
2023-06-15T12:33:56.729Z,22.51
2023-06-15T12:36:40.849Z,22.82
2023-06-15T12:39:28.248Z,22.94
2023-06-15T12:42:12.827Z,22.94
2023-06-15T12:44:55.922Z,23.00
2023-06-15T12:47:38.960Z,22.78
2023-06-15T12:50:22.181Z,22.75
2023-06-15T12:53:05.364Z,22.70
2023-06-15T12:55:48.447Z,22.65
2023-06-15T12:58:32.929Z,22.64
2023-06-15T13:01:16.030Z,22.91
2023-06-15T13:03:59.314Z,23.01
2023-06-15T13:06:42.486Z,23.13
2023-06-15T13:09:25.640Z,23.07
2023-06-15T13:12:09.963Z,22.95
2023-06-15T13:14:54.578Z,22.93
2023-06-15T13:17:38.568Z,22.82
2023-06-15T13:20:22.285Z,22.89
2023-06-15T13:23:05.823Z,22.97
2023-06-15T13:25:48.933Z,22.97
2023-06-15T13:28:32.097Z,22.84
2023-06-15T13:31:16.609Z,22.88
2023-06-15T13:33:59.718Z,22.94
2023-06-15T13:36:46.004Z,22.95
2023-06-15T13:39:29.210Z,23.05
2023-06-15T13:42:13.414Z,23.20
2023-06-15T13:44:56.548Z,23.38
2023-06-15T13:47:43.536Z,23.26
2023-06-15T13:50:28.009Z,23.41
2023-06-15T13:53:11.378Z,23.28
2023-06-15T13:55:54.568Z,23.06
2023-06-15T13:58:37.816Z,22.98
2023-06-15T14:01:24.410Z,22.92
2023-06-15T14:04:09.213Z,22.80
2023-06-15T14:06:52.394Z,22.88
2023-06-15T14:09:35.622Z,22.68
2023-06-15T14:12:19.300Z,22.70
2023-06-15T14:15:03.346Z,22.79
2023-06-15T14:17:46.511Z,22.82
2023-06-15T14:20:31.178Z,22.64
2023-06-15T14:23:14.227Z,22.61
2023-06-15T14:25:57.315Z,22.48
2023-06-15T14:28:43.167Z,22.45
2023-06-15T14:31:26.303Z,22.43
2023-06-15T14:34:09.546Z,22.38
2023-06-15T14:36:54.004Z,22.42
2023-06-15T14:39:37.091Z,22.32
2023-06-15T14:42:20.934Z,22.30
2023-06-15T14:45:04.373Z,22.21
2023-06-15T14:47:49.463Z,22.12
2023-06-15T14:50:32.946Z,22.03
2023-06-15T14:53:17.417Z,21.95
2023-06-15T14:56:00.557Z,21.92
2023-06-15T14:58:43.918Z,21.78
2023-06-15T15:01:27.087Z,21.75
2023-06-15T15:04:13.046Z,21.61
2023-06-15T15:06:56.080Z,21.49
2023-06-15T15:09:40.650Z,21.35
2023-06-15T15:12:24.024Z,21.20
2023-06-15T15:15:08.018Z,21.06
2023-06-15T15:17:53.467Z,20.96
2023-06-15T15:20:36.673Z,20.81
2023-06-15T15:23:19.732Z,20.49
2023-06-15T15:26:05.468Z,20.36
2023-06-15T15:28:48.560Z,20.30
2023-06-15T15:31:31.706Z,20.13
2023-06-15T15:34:15.564Z,19.94
2023-06-15T15:36:58.690Z,19.87
2023-06-15T15:39:41.715Z,19.99
2023-06-15T15:42:26.323Z,20.02
2023-06-15T15:45:10.688Z,20.02
2023-06-15T15:47:59.793Z,19.97
2023-06-15T15:50:44.472Z,19.91
2023-06-15T15:53:27.708Z,19.95
2023-06-15T15:56:14.411Z,20.02
2023-06-15T15:58:59.004Z,20.01
2023-06-15T16:01:42.892Z,20.02
2023-06-15T16:04:26.077Z,20.06
2023-06-15T16:07:10.989Z,20.10
2023-06-15T16:09:59.896Z,20.13
2023-06-15T16:12:54.278Z,20.11
2023-06-15T16:15:39.082Z,20.06
2023-06-15T16:18:22.412Z,20.10
2023-06-15T16:21:07.251Z,20.00
2023-06-15T16:23:50.636Z,19.96
2023-06-15T16:26:33.812Z,19.91
2023-06-15T16:29:17.059Z,19.82
2023-06-15T16:32:05.864Z,19.74
2023-06-15T16:34:49.152Z,19.68
2023-06-15T16:37:32.229Z,19.59
2023-06-15T16:40:15.716Z,19.50
2023-06-15T16:42:59.158Z,19.50
2023-06-15T16:45:43.872Z,19.41
2023-06-15T16:48:28.514Z,19.29
2023-06-15T16:51:11.846Z,19.23
2023-06-15T16:53:54.970Z,19.18
2023-06-15T16:56:41.173Z,19.12
2023-06-15T16:59:24.427Z,19.08
2023-06-15T17:02:08.661Z,19.03
2023-06-15T17:04:54.529Z,19.03
2023-06-15T17:07:37.875Z,19.01
2023-06-15T17:10:21.300Z,18.98
2023-06-15T17:13:04.628Z,18.87
2023-06-15T17:15:47.766Z,18.88
2023-06-15T17:18:30.826Z,18.89
2023-06-15T17:21:15.267Z,18.83
2023-06-15T17:23:58.642Z,18.83
2023-06-15T17:26:42.995Z,18.66
2023-06-15T17:29:26.259Z,18.62
2023-06-15T17:32:11.603Z,18.60
2023-06-15T17:34:55.315Z,18.53
2023-06-15T17:37:39.860Z,18.47
2023-06-15T17:40:23.015Z,18.41
2023-06-15T17:43:06.246Z,18.33
2023-06-15T17:45:49.310Z,18.36
2023-06-15T17:48:32.391Z,18.29
2023-06-15T17:51:16.542Z,18.27
2023-06-15T17:54:01.027Z,18.28
2023-06-15T17:56:44.218Z,18.21
2023-06-15T17:59:27.350Z,18.13
2023-06-15T18:02:10.473Z,18.18
2023-06-15T18:04:53.564Z,18.06
2023-06-15T18:07:36.607Z,18.02
2023-06-15T18:10:22.014Z,17.95
2023-06-15T18:13:05.125Z,17.90
2023-06-15T18:15:48.408Z,17.90
2023-06-15T18:18:31.696Z,17.89
2023-06-15T18:21:14.786Z,17.84
2023-06-15T18:23:57.927Z,17.80
2023-06-15T18:26:46.030Z,17.75
2023-06-15T18:29:29.128Z,17.77
2023-06-15T18:32:12.202Z,17.77
2023-06-15T18:34:55.268Z,17.76
2023-06-15T18:37:39.498Z,17.75
2023-06-15T18:40:22.934Z,17.77
2023-06-15T18:43:07.704Z,17.77
2023-06-15T18:45:51.185Z,17.73
2023-06-15T18:48:34.470Z,17.73
2023-06-15T18:51:17.571Z,17.71
2023-06-15T18:54:00.945Z,17.66
2023-06-15T18:56:44.116Z,17.69
2023-06-15T18:59:28.631Z,17.65
2023-06-15T19:02:13.362Z,17.63
2023-06-15T19:04:56.511Z,17.60
2023-06-15T19:07:39.718Z,17.62
2023-06-15T19:10:23.350Z,17.62
2023-06-15T19:13:07.119Z,17.59
2023-06-15T19:15:51.753Z,17.55
2023-06-15T19:18:35.333Z,17.55
2023-06-15T19:21:18.602Z,17.58
2023-06-15T19:24:02.058Z,17.48
2023-06-15T19:26:45.200Z,17.50
2023-06-15T19:29:28.619Z,17.53
2023-06-15T19:32:14.665Z,17.49
2023-06-15T19:34:57.766Z,17.50
2023-06-15T19:37:40.851Z,17.51
2023-06-15T19:40:24.620Z,17.59
2023-06-15T19:43:07.817Z,17.65
2023-06-15T19:45:50.943Z,17.74
2023-06-15T19:48:36.356Z,17.58
2023-06-15T19:51:19.428Z,17.51
2023-06-15T19:54:02.612Z,17.49
2023-06-15T19:56:45.848Z,17.49
2023-06-15T19:59:29.375Z,17.45
2023-06-15T20:02:12.561Z,17.45
2023-06-15T20:04:57.116Z,17.48
2023-06-15T20:07:40.255Z,17.48
2023-06-15T20:10:23.401Z,17.51
2023-06-15T20:13:06.490Z,17.51
2023-06-15T20:15:49.789Z,17.45
2023-06-15T20:18:33.231Z,17.43
2023-06-15T20:21:19.028Z,17.42
2023-06-15T20:24:02.138Z,17.39
2023-06-15T20:26:46.059Z,17.33
2023-06-15T20:29:29.085Z,17.37
2023-06-15T20:32:12.213Z,17.42
2023-06-15T20:34:55.463Z,17.54
2023-06-15T20:37:41.667Z,17.48
2023-06-15T20:40:24.881Z,17.42
2023-06-15T20:43:07.922Z,17.41
2023-06-15T20:45:51.080Z,17.38
2023-06-15T20:48:36.374Z,17.40
2023-06-15T20:51:19.628Z,17.40
2023-06-15T20:54:04.121Z,17.41
2023-06-15T20:56:48.418Z,17.42
2023-06-15T20:59:31.432Z,17.40
2023-06-15T21:02:14.532Z,17.39
2023-06-15T21:04:57.616Z,17.40
2023-06-15T21:07:40.747Z,17.40
2023-06-15T21:10:25.533Z,17.38
2023-06-15T21:13:08.765Z,17.35
2023-06-15T21:15:51.924Z,17.36
2023-06-15T21:18:35.635Z,17.36
2023-06-15T21:21:19.055Z,17.33
2023-06-15T21:24:02.239Z,17.35
2023-06-15T21:26:46.798Z,17.35
2023-06-15T21:29:29.928Z,17.38
2023-06-15T21:32:13.002Z,17.33
2023-06-15T21:34:56.170Z,17.30
2023-06-15T21:37:39.298Z,17.28
2023-06-15T21:40:22.424Z,17.30
2023-06-15T21:43:08.279Z,17.27
2023-06-15T21:45:52.007Z,17.28
2023-06-15T21:48:35.227Z,17.28
2023-06-15T21:51:18.463Z,17.26
2023-06-15T21:54:01.680Z,17.25
2023-06-15T21:56:44.896Z,17.25
2023-06-15T21:59:29.471Z,17.24
2023-06-15T22:02:12.844Z,17.18
2023-06-15T22:04:55.975Z,17.19
2023-06-15T22:07:39.267Z,17.21
2023-06-15T22:10:22.768Z,17.16
2023-06-15T22:13:06.605Z,17.10
2023-06-15T22:15:51.571Z,17.06
2023-06-15T22:18:35.921Z,17.09
2023-06-15T22:21:19.128Z,17.08
2023-06-15T22:24:03.213Z,17.04
2023-06-15T22:26:46.495Z,17.02
2023-06-15T22:29:29.659Z,17.01
2023-06-15T22:32:14.190Z,16.99
2023-06-15T22:34:57.305Z,17.00
2023-06-15T22:37:40.502Z,16.97
2023-06-15T22:40:23.658Z,16.97
2023-06-15T22:43:06.922Z,16.98
2023-06-15T22:45:50.365Z,16.97
2023-06-15T22:48:38.477Z,16.97
2023-06-15T22:51:21.637Z,16.92
2023-06-15T22:54:05.044Z,16.95
2023-06-15T22:56:48.164Z,16.94
2023-06-15T22:59:32.415Z,16.92
2023-06-15T23:02:17.521Z,16.93
2023-06-15T23:05:02.202Z,16.94
2023-06-15T23:07:46.099Z,16.99
2023-06-15T23:10:29.354Z,16.95
2023-06-15T23:13:12.552Z,16.95
2023-06-15T23:15:56.921Z,16.91
2023-06-15T23:18:41.375Z,16.93
2023-06-15T23:21:27.772Z,16.92
2023-06-15T23:24:11.072Z,16.95
2023-06-15T23:26:57.130Z,16.97
2023-06-15T23:29:45.421Z,16.92
2023-06-15T23:32:28.640Z,16.94
2023-06-15T23:35:11.926Z,16.93
2023-06-15T23:37:56.458Z,16.92
2023-06-15T23:40:39.630Z,16.88
2023-06-15T23:43:22.862Z,16.87
2023-06-15T23:46:06.127Z,16.84
2023-06-15T23:48:50.068Z,16.82
2023-06-15T23:51:33.239Z,16.78
2023-06-15T23:54:18.146Z,16.78
2023-06-15T23:57:01.233Z,16.78
2023-06-15T23:59:45.615Z,16.75
